Bush, Illinois
Current Conditions -  °F | °C
As of 7:52 AM on Monday 22 Dec 2014 (Local Time) from KMDH Reporting Station
Overcast Overcast  
Wind Chill:   Ceiling: 1000
Heat Index:   Visibility: 9mi
Dew Point:   Wind: 13mph
Humidity: 82%   Direction: 170°S
Pressure: 29.83"   Gusts: 21mph
Location:  37.8209°N, 89.2055°W
Report Text: KMDH 221352Z AUTO 17011G18KT 9SM OVC010 07/04 A2983 RMK AO2 SLP102 T00720044
Loading
Personal Weather Stations






























Interactive Weather Map New forecast layout! Learn more

10-Day Weather Forecast

Advertisements
Track Severe Weather on mobile